sensor_id;sensor_type;location;lat;lon;timestamp;pressure;altitude;pressure_sealevel;temperature;humidity
51227;BME280;42714;48.260;10.980;2024-01-06T00:04:56;958.3;;;5.9;98.9
51227;BME280;42714;48.260;10.980;2024-01-06T00:09:57;958.3;;;6.0;98.9
51227;BME280;42714;48.260;10.980;2024-01-06T00:14:58;958.3;;;5.9;98.8
51227;BME280;42714;48.260;10.980;2024-01-06T00:19:59;958.3;;;5.8;98.9
51227;BME280;42714;48.260;10.980;2024-01-06T00:25:00;958.3;;;5.8;99.0
51227;BME280;42714;48.260;10.980;2024-01-06T00:30:01;958.2;;;5.8;99.2
51227;BME280;42714;48.260;10.980;2024-01-06T00:35:02;958.2;;;5.8;99.4
51227;BME280;42714;48.260;10.980;2024-01-06T00:45:04;958.1;;;5.8;99.7
51227;BME280;42714;48.260;10.980;2024-01-06T00:50:06;958.2;;;5.9;99.8
51227;BME280;42714;48.260;10.980;2024-01-06T00:55:06;958.2;;;6.0;99.7
51227;BME280;42714;48.260;10.980;2024-01-06T01:00:07;958.2;;;6.0;99.7
51227;BME280;42714;48.260;10.980;2024-01-06T01:05:08;958.2;;;6.0;99.6
51227;BME280;42714;48.260;10.980;2024-01-06T01:10:09;958.2;;;6.0;99.5
51227;BME280;42714;48.260;10.980;2024-01-06T01:15:10;958.1;;;6.0;99.4
51227;BME280;42714;48.260;10.980;2024-01-06T01:20:11;958.2;;;6.0;99.3
51227;BME280;42714;48.260;10.980;2024-01-06T01:25:12;958.3;;;6.0;99.1
51227;BME280;42714;48.260;10.980;2024-01-06T01:30:13;958.3;;;6.0;99.0
51227;BME280;42714;48.260;10.980;2024-01-06T01:35:14;958.4;;;6.1;99.0
51227;BME280;42714;48.260;10.980;2024-01-06T01:40:15;958.4;;;6.0;98.9
51227;BME280;42714;48.260;10.980;2024-01-06T01:45:16;958.5;;;6.0;98.7
51227;BME280;42714;48.260;10.980;2024-01-06T01:50:17;958.6;;;5.9;98.8
51227;BME280;42714;48.260;10.980;2024-01-06T01:55:18;958.6;;;6.0;98.9
51227;BME280;42714;48.260;10.980;2024-01-06T02:00:19;958.5;;;6.0;98.8
51227;BME280;42714;48.260;10.980;2024-01-06T02:05:20;958.5;;;6.0;98.9
51227;BME280;42714;48.260;10.980;2024-01-06T02:10:21;958.5;;;6.0;98.8
51227;BME280;42714;48.260;10.980;2024-01-06T02:15:22;958.5;;;5.9;98.8
51227;BME280;42714;48.260;10.980;2024-01-06T02:20:23;958.6;;;5.8;98.9
51227;BME280;42714;48.260;10.980;2024-01-06T02:25:24;958.6;;;5.9;99.0
51227;BME280;42714;48.260;10.980;2024-01-06T02:30:25;958.6;;;5.9;99.2
51227;BME280;42714;48.260;10.980;2024-01-06T02:35:26;958.7;;;5.9;99.2
51227;BME280;42714;48.260;10.980;2024-01-06T02:40:27;958.7;;;5.9;99.2
51227;BME280;42714;48.260;10.980;2024-01-06T02:45:28;958.7;;;5.9;99.2
51227;BME280;42714;48.260;10.980;2024-01-06T02:50:29;958.7;;;5.9;99.2
51227;BME280;42714;48.260;10.980;2024-01-06T02:55:30;958.7;;;5.9;99.2
51227;BME280;42714;48.260;10.980;2024-01-06T03:00:31;958.8;;;5.9;98.7
51227;BME280;42714;48.260;10.980;2024-01-06T03:05:32;958.8;;;5.8;98.5
51227;BME280;42714;48.260;10.980;2024-01-06T03:10:33;958.8;;;5.7;98.5
51227;BME280;42714;48.260;10.980;2024-01-06T03:15:34;958.9;;;5.6;98.5
51227;BME280;42714;48.260;10.980;2024-01-06T03:20:35;959.0;;;5.6;98.7
51227;BME280;42714;48.260;10.980;2024-01-06T03:25:36;959.1;;;5.6;98.8
51227;BME280;42714;48.260;10.980;2024-01-06T03:30:37;959.0;;;5.5;98.7
51227;BME280;42714;48.260;10.980;2024-01-06T03:35:38;959.0;;;5.5;99.0
51227;BME280;42714;48.260;10.980;2024-01-06T03:40:39;959.1;;;5.5;99.0
51227;BME280;42714;48.260;10.980;2024-01-06T03:45:40;959.1;;;5.4;97.7
51227;BME280;42714;48.260;10.980;2024-01-06T03:50:41;959.1;;;5.4;97.7
51227;BME280;42714;48.260;10.980;2024-01-06T03:55:42;959.2;;;5.3;97.1
51227;BME280;42714;48.260;10.980;2024-01-06T04:00:43;959.1;;;5.2;97.3
51227;BME280;42714;48.260;10.980;2024-01-06T04:05:44;959.2;;;5.1;97.5
51227;BME280;42714;48.260;10.980;2024-01-06T04:10:45;959.2;;;4.9;97.1
51227;BME280;42714;48.260;10.980;2024-01-06T04:15:46;959.3;;;4.8;97.0
51227;BME280;42714;48.260;10.980;2024-01-06T04:20:47;959.3;;;4.7;97.3
51227;BME280;42714;48.260;10.980;2024-01-06T04:25:48;959.4;;;4.6;97.7
51227;BME280;42714;48.260;10.980;2024-01-06T04:30:49;959.4;;;4.4;97.5
51227;BME280;42714;48.260;10.980;2024-01-06T04:35:50;959.4;;;4.3;97.5
51227;BME280;42714;48.260;10.980;2024-01-06T04:40:51;959.4;;;4.3;97.9
51227;BME280;42714;48.260;10.980;2024-01-06T04:45:52;959.5;;;4.3;97.9
51227;BME280;42714;48.260;10.980;2024-01-06T04:50:53;959.5;;;4.2;97.9
51227;BME280;42714;48.260;10.980;2024-01-06T04:55:54;959.5;;;4.2;98.1
51227;BME280;42714;48.260;10.980;2024-01-06T05:00:55;959.6;;;4.2;98.3
51227;BME280;42714;48.260;10.980;2024-01-06T05:05:56;959.7;;;4.1;98.1
51227;BME280;42714;48.260;10.980;2024-01-06T05:10:57;959.7;;;4.1;98.3
51227;BME280;42714;48.260;10.980;2024-01-06T05:15:58;959.8;;;4.2;98.2
51227;BME280;42714;48.260;10.980;2024-01-06T05:20:59;959.8;;;4.2;98.2
51227;BME280;42714;48.260;10.980;2024-01-06T05:26:00;959.8;;;4.2;98.1
51227;BME280;42714;48.260;10.980;2024-01-06T05:31:01;959.9;;;4.2;98.1
51227;BME280;42714;48.260;10.980;2024-01-06T05:36:02;959.9;;;4.2;98.0
51227;BME280;42714;48.260;10.980;2024-01-06T05:41:03;960.0;;;4.3;98.0
51227;BME280;42714;48.260;10.980;2024-01-06T05:46:04;960.1;;;4.3;98.0
51227;BME280;42714;48.260;10.980;2024-01-06T05:51:05;960.2;;;4.3;98.2
51227;BME280;42714;48.260;10.980;2024-01-06T05:56:06;960.2;;;4.4;97.7
51227;BME280;42714;48.260;10.980;2024-01-06T06:01:07;960.3;;;4.4;97.6
51227;BME280;42714;48.260;10.980;2024-01-06T06:06:08;960.4;;;4.4;97.5
51227;BME280;42714;48.260;10.980;2024-01-06T06:11:09;960.4;;;4.4;97.4
51227;BME280;42714;48.260;10.980;2024-01-06T06:16:10;960.4;;;4.4;97.1
51227;BME280;42714;48.260;10.980;2024-01-06T06:21:11;960.5;;;4.4;97.1
51227;BME280;42714;48.260;10.980;2024-01-06T06:26:12;960.6;;;4.4;96.9
51227;BME280;42714;48.260;10.980;2024-01-06T06:31:13;960.6;;;4.4;97.0
51227;BME280;42714;48.260;10.980;2024-01-06T06:36:14;960.6;;;4.4;97.0
51227;BME280;42714;48.260;10.980;2024-01-06T06:41:15;960.7;;;4.4;97.0
51227;BME280;42714;48.260;10.980;2024-01-06T06:46:16;960.7;;;4.4;97.1
51227;BME280;42714;48.260;10.980;2024-01-06T06:51:17;960.7;;;4.4;97.2
51227;BME280;42714;48.260;10.980;2024-01-06T06:56:18;960.7;;;4.4;97.2
51227;BME280;42714;48.260;10.980;2024-01-06T07:01:19;960.7;;;4.3;97.0
51227;BME280;42714;48.260;10.980;2024-01-06T07:06:20;960.8;;;4.2;97.3
51227;BME280;42714;48.260;10.980;2024-01-06T07:11:21;960.8;;;4.2;97.4
51227;BME280;42714;48.260;10.980;2024-01-06T07:16:22;960.9;;;4.2;97.7
51227;BME280;42714;48.260;10.980;2024-01-06T07:21:23;960.9;;;4.3;97.8
51227;BME280;42714;48.260;10.980;2024-01-06T07:26:24;961.0;;;4.2;97.7
51227;BME280;42714;48.260;10.980;2024-01-06T07:31:25;961.1;;;4.1;97.8
51227;BME280;42714;48.260;10.980;2024-01-06T07:36:26;961.1;;;4.0;98.0
51227;BME280;42714;48.260;10.980;2024-01-06T07:41:27;961.2;;;4.0;98.3
51227;BME280;42714;48.260;10.980;2024-01-06T07:46:28;961.2;;;3.9;98.6
51227;BME280;42714;48.260;10.980;2024-01-06T07:51:29;961.3;;;4.0;98.8
51227;BME280;42714;48.260;10.980;2024-01-06T07:56:30;961.3;;;4.0;99.2
51227;BME280;42714;48.260;10.980;2024-01-06T08:01:31;961.3;;;4.0;99.3
51227;BME280;42714;48.260;10.980;2024-01-06T08:06:32;961.3;;;4.2;99.5
51227;BME280;42714;48.260;10.980;2024-01-06T08:11:33;961.3;;;4.2;99.5
51227;BME280;42714;48.260;10.980;2024-01-06T08:16:34;961.4;;;4.2;99.5
51227;BME280;42714;48.260;10.980;2024-01-06T08:21:35;961.5;;;4.1;99.5
51227;BME280;42714;48.260;10.980;2024-01-06T08:26:36;961.6;;;4.0;99.7
51227;BME280;42714;48.260;10.980;2024-01-06T08:31:37;961.6;;;4.1;99.9
51227;BME280;42714;48.260;10.980;2024-01-06T08:36:38;961.6;;;4.3;99.9
51227;BME280;42714;48.260;10.980;2024-01-06T08:41:39;961.6;;;4.3;99.9
51227;BME280;42714;48.260;10.980;2024-01-06T08:46:40;961.6;;;4.5;99.7
51227;BME280;42714;48.260;10.980;2024-01-06T08:51:41;961.7;;;4.7;99.4
51227;BME280;42714;48.260;10.980;2024-01-06T08:56:42;961.7;;;4.8;98.8
51227;BME280;42714;48.260;10.980;2024-01-06T09:01:43;961.7;;;4.7;98.5
51227;BME280;42714;48.260;10.980;2024-01-06T09:06:44;961.8;;;4.7;98.3
51227;BME280;42714;48.260;10.980;2024-01-06T09:11:45;961.8;;;4.8;98.0
51227;BME280;42714;48.260;10.980;2024-01-06T09:16:46;961.8;;;5.0;97.8
51227;BME280;42714;48.260;10.980;2024-01-06T09:21:47;961.8;;;5.1;97.3
51227;BME280;42714;48.260;10.980;2024-01-06T09:26:48;961.8;;;5.1;96.8
51227;BME280;42714;48.260;10.980;2024-01-06T09:31:49;961.8;;;5.1;96.7
51227;BME280;42714;48.260;10.980;2024-01-06T09:36:50;961.9;;;5.1;96.3
51227;BME280;42714;48.260;10.980;2024-01-06T09:41:51;962.0;;;5.0;95.8
51227;BME280;42714;48.260;10.980;2024-01-06T09:46:52;962.0;;;4.9;96.0
51227;BME280;42714;48.260;10.980;2024-01-06T09:51:53;962.0;;;4.9;96.1
51227;BME280;42714;48.260;10.980;2024-01-06T09:56:54;962.0;;;5.0;96.1
51227;BME280;42714;48.260;10.980;2024-01-06T10:01:56;962.0;;;5.0;96.0
51227;BME280;42714;48.260;10.980;2024-01-06T10:06:56;962.0;;;4.9;96.1
51227;BME280;42714;48.260;10.980;2024-01-06T10:11:57;962.0;;;4.8;96.1
51227;BME280;42714;48.260;10.980;2024-01-06T10:16:58;961.9;;;5.0;96.2
51227;BME280;42714;48.260;10.980;2024-01-06T10:21:59;961.8;;;5.2;96.2
51227;BME280;42714;48.260;10.980;2024-01-06T10:27:00;961.8;;;5.2;96.0
51227;BME280;42714;48.260;10.980;2024-01-06T10:32:01;961.7;;;5.2;95.8
51227;BME280;42714;48.260;10.980;2024-01-06T10:37:02;961.7;;;5.1;95.6
51227;BME280;42714;48.260;10.980;2024-01-06T10:42:04;961.8;;;5.1;95.7
51227;BME280;42714;48.260;10.980;2024-01-06T10:47:04;961.7;;;5.2;95.8
51227;BME280;42714;48.260;10.980;2024-01-06T10:52:05;961.8;;;5.1;95.8
51227;BME280;42714;48.260;10.980;2024-01-06T10:57:06;961.8;;;5.1;95.9
51227;BME280;42714;48.260;10.980;2024-01-06T11:02:07;961.8;;;5.1;95.9
51227;BME280;42714;48.260;10.980;2024-01-06T11:07:08;961.8;;;5.0;95.9
51227;BME280;42714;48.260;10.980;2024-01-06T11:12:09;961.8;;;4.7;95.8
51227;BME280;42714;48.260;10.980;2024-01-06T11:17:10;961.9;;;4.6;96.2
51227;BME280;42714;48.260;10.980;2024-01-06T11:22:34;961.9;;;4.5;96.4
51227;BME280;42714;48.260;10.980;2024-01-06T11:27:17;961.9;;;4.5;96.8
51227;BME280;42714;48.260;10.980;2024-01-06T11:32:18;961.8;;;4.4;97.2
51227;BME280;42714;48.260;10.980;2024-01-06T11:37:15;961.8;;;4.5;97.7
51227;BME280;42714;48.260;10.980;2024-01-06T11:42:15;961.8;;;4.7;97.7
51227;BME280;42714;48.260;10.980;2024-01-06T11:47:17;961.6;;;4.6;97.8
51227;BME280;42714;48.260;10.980;2024-01-06T11:52:17;961.5;;;4.9;97.8
51227;BME280;42714;48.260;10.980;2024-01-06T11:57:18;961.5;;;4.9;97.7
51227;BME280;42714;48.260;10.980;2024-01-06T12:02:20;961.5;;;4.8;97.5
51227;BME280;42714;48.260;10.980;2024-01-06T12:07:21;961.4;;;4.7;97.4
51227;BME280;42714;48.260;10.980;2024-01-06T12:12:21;961.4;;;4.7;97.4
51227;BME280;42714;48.260;10.980;2024-01-06T12:17:22;961.5;;;4.8;97.6
51227;BME280;42714;48.260;10.980;2024-01-06T12:22:23;961.4;;;4.9;97.6
51227;BME280;42714;48.260;10.980;2024-01-06T12:27:24;961.5;;;4.9;97.2
51227;BME280;42714;48.260;10.980;2024-01-06T12:32:25;961.5;;;4.7;96.6
51227;BME280;42714;48.260;10.980;2024-01-06T12:37:27;961.4;;;4.8;96.9
51227;BME280;42714;48.260;10.980;2024-01-06T12:42:27;961.5;;;5.0;96.9
51227;BME280;42714;48.260;10.980;2024-01-06T12:47:28;961.5;;;5.1;96.6
51227;BME280;42714;48.260;10.980;2024-01-06T12:52:30;961.4;;;5.2;95.9
51227;BME280;42714;48.260;10.980;2024-01-06T12:57:30;961.4;;;5.2;95.7
51227;BME280;42714;48.260;10.980;2024-01-06T13:02:31;961.3;;;5.2;95.5
51227;BME280;42714;48.260;10.980;2024-01-06T13:07:32;961.3;;;5.2;95.1
51227;BME280;42714;48.260;10.980;2024-01-06T13:12:33;961.4;;;5.2;95.0
51227;BME280;42714;48.260;10.980;2024-01-06T13:17:34;961.4;;;5.3;95.0
51227;BME280;42714;48.260;10.980;2024-01-06T13:22:35;961.4;;;5.2;94.6
51227;BME280;42714;48.260;10.980;2024-01-06T13:27:36;961.5;;;5.2;94.5
51227;BME280;42714;48.260;10.980;2024-01-06T13:32:38;961.5;;;5.3;94.5
51227;BME280;42714;48.260;10.980;2024-01-06T13:37:38;961.5;;;5.2;94.1
51227;BME280;42714;48.260;10.980;2024-01-06T13:42:40;961.6;;;5.3;94.1
51227;BME280;42714;48.260;10.980;2024-01-06T13:47:40;961.6;;;5.2;94.0
51227;BME280;42714;48.260;10.980;2024-01-06T13:52:42;961.6;;;5.2;94.0
51227;BME280;42714;48.260;10.980;2024-01-06T13:57:42;961.6;;;5.1;94.1
51227;BME280;42714;48.260;10.980;2024-01-06T14:02:44;961.7;;;5.1;94.0
51227;BME280;42714;48.260;10.980;2024-01-06T14:07:45;961.7;;;5.0;94.0
51227;BME280;42714;48.260;10.980;2024-01-06T14:12:45;961.8;;;4.8;94.0
51227;BME280;42714;48.260;10.980;2024-01-06T14:17:46;961.8;;;4.8;94.3
51227;BME280;42714;48.260;10.980;2024-01-06T14:22:47;961.9;;;4.7;94.7
51227;BME280;42714;48.260;10.980;2024-01-06T14:27:48;961.8;;;4.7;95.0
51227;BME280;42714;48.260;10.980;2024-01-06T14:32:49;961.9;;;4.6;95.3
51227;BME280;42714;48.260;10.980;2024-01-06T14:37:50;961.9;;;4.6;95.6
51227;BME280;42714;48.260;10.980;2024-01-06T14:42:51;961.9;;;4.6;95.9
51227;BME280;42714;48.260;10.980;2024-01-06T14:47:52;962.0;;;4.7;96.0
51227;BME280;42714;48.260;10.980;2024-01-06T14:52:54;962.0;;;4.7;96.0
51227;BME280;42714;48.260;10.980;2024-01-06T14:57:54;962.0;;;4.7;95.8
51227;BME280;42714;48.260;10.980;2024-01-06T15:02:56;962.1;;;4.6;95.0
51227;BME280;42714;48.260;10.980;2024-01-06T15:07:57;962.2;;;4.3;94.8
51227;BME280;42714;48.260;10.980;2024-01-06T15:12:58;962.2;;;4.2;95.0
51227;BME280;42714;48.260;10.980;2024-01-06T15:17:59;962.3;;;4.2;95.1
51227;BME280;42714;48.260;10.980;2024-01-06T15:23:00;962.3;;;4.2;95.1
51227;BME280;42714;48.260;10.980;2024-01-06T15:28:01;962.3;;;4.1;95.1
51227;BME280;42714;48.260;10.980;2024-01-06T15:33:02;962.3;;;4.0;95.0
51227;BME280;42714;48.260;10.980;2024-01-06T15:38:03;962.3;;;4.0;95.2
51227;BME280;42714;48.260;10.980;2024-01-06T15:43:04;962.3;;;3.9;95.1
51227;BME280;42714;48.260;10.980;2024-01-06T15:48:05;962.3;;;3.8;95.2
51227;BME280;42714;48.260;10.980;2024-01-06T15:53:06;962.3;;;3.8;95.6
51227;BME280;42714;48.260;10.980;2024-01-06T15:58:07;962.4;;;3.8;95.9
51227;BME280;42714;48.260;10.980;2024-01-06T16:03:08;962.5;;;3.7;96.1
51227;BME280;42714;48.260;10.980;2024-01-06T16:08:09;962.5;;;3.7;96.3
51227;BME280;42714;48.260;10.980;2024-01-06T16:13:10;962.5;;;3.6;96.6
51227;BME280;42714;48.260;10.980;2024-01-06T16:18:11;962.5;;;3.7;96.8
51227;BME280;42714;48.260;10.980;2024-01-06T16:23:12;962.5;;;3.7;97.1
51227;BME280;42714;48.260;10.980;2024-01-06T16:28:13;962.5;;;3.8;97.3
51227;BME280;42714;48.260;10.980;2024-01-06T16:33:14;962.5;;;3.9;97.0
51227;BME280;42714;48.260;10.980;2024-01-06T16:38:15;962.5;;;4.0;96.9
51227;BME280;42714;48.260;10.980;2024-01-06T16:43:16;962.6;;;3.9;96.3
51227;BME280;42714;48.260;10.980;2024-01-06T16:48:17;962.6;;;3.8;96.2
51227;BME280;42714;48.260;10.980;2024-01-06T16:53:18;962.6;;;3.8;96.3
51227;BME280;42714;48.260;10.980;2024-01-06T16:58:19;962.6;;;3.7;96.6
51227;BME280;42714;48.260;10.980;2024-01-06T17:03:20;962.6;;;3.7;96.8
51227;BME280;42714;48.260;10.980;2024-01-06T17:08:21;962.6;;;3.7;96.7
51227;BME280;42714;48.260;10.980;2024-01-06T17:13:22;962.6;;;3.6;96.0
51227;BME280;42714;48.260;10.980;2024-01-06T17:18:23;962.6;;;3.6;96.0
51227;BME280;42714;48.260;10.980;2024-01-06T17:23:24;962.6;;;3.7;96.1
51227;BME280;42714;48.260;10.980;2024-01-06T17:28:25;962.6;;;3.7;96.0
51227;BME280;42714;48.260;10.980;2024-01-06T17:33:26;962.7;;;3.7;96.0
51227;BME280;42714;48.260;10.980;2024-01-06T17:38:27;962.7;;;3.8;96.1
51227;BME280;42714;48.260;10.980;2024-01-06T17:43:28;962.7;;;3.7;96.1
51227;BME280;42714;48.260;10.980;2024-01-06T17:48:29;962.8;;;3.6;95.8
51227;BME280;42714;48.260;10.980;2024-01-06T17:53:30;962.8;;;3.5;96.2
51227;BME280;42714;48.260;10.980;2024-01-06T17:58:31;962.8;;;3.5;96.3
51227;BME280;42714;48.260;10.980;2024-01-06T18:03:32;962.8;;;3.5;96.6
51227;BME280;42714;48.260;10.980;2024-01-06T18:08:33;962.8;;;3.5;96.5
51227;BME280;42714;48.260;10.980;2024-01-06T18:13:34;962.9;;;3.4;96.5
51227;BME280;42714;48.260;10.980;2024-01-06T18:18:35;962.9;;;3.4;96.5
51227;BME280;42714;48.260;10.980;2024-01-06T18:23:36;962.9;;;3.4;96.6
51227;BME280;42714;48.260;10.980;2024-01-06T18:28:37;962.9;;;3.5;96.5
51227;BME280;42714;48.260;10.980;2024-01-06T18:33:38;962.9;;;3.5;96.4
51227;BME280;42714;48.260;10.980;2024-01-06T18:38:39;962.9;;;3.4;96.4
51227;BME280;42714;48.260;10.980;2024-01-06T18:43:40;962.9;;;3.5;96.4
51227;BME280;42714;48.260;10.980;2024-01-06T18:48:41;962.9;;;3.6;96.5
51227;BME280;42714;48.260;10.980;2024-01-06T18:53:42;962.8;;;3.6;96.3
51227;BME280;42714;48.260;10.980;2024-01-06T18:58:43;962.8;;;3.6;96.2
51227;BME280;42714;48.260;10.980;2024-01-06T19:03:44;962.8;;;3.5;96.2
51227;BME280;42714;48.260;10.980;2024-01-06T19:08:45;962.8;;;3.4;96.0
51227;BME280;42714;48.260;10.980;2024-01-06T19:13:46;962.9;;;3.4;96.2
51227;BME280;42714;48.260;10.980;2024-01-06T19:18:47;962.8;;;3.3;96.1
51227;BME280;42714;48.260;10.980;2024-01-06T19:23:48;962.8;;;3.2;96.0
51227;BME280;42714;48.260;10.980;2024-01-06T19:28:49;962.9;;;3.2;96.3
51227;BME280;42714;48.260;10.980;2024-01-06T19:33:50;962.8;;;3.3;96.5
51227;BME280;42714;48.260;10.980;2024-01-06T19:38:51;962.9;;;3.2;96.6
51227;BME280;42714;48.260;10.980;2024-01-06T19:43:52;962.9;;;3.3;96.4
51227;BME280;42714;48.260;10.980;2024-01-06T19:48:53;962.9;;;3.3;96.6
51227;BME280;42714;48.260;10.980;2024-01-06T19:53:54;962.9;;;3.3;96.4
51227;BME280;42714;48.260;10.980;2024-01-06T19:58:55;962.9;;;3.4;96.4
51227;BME280;42714;48.260;10.980;2024-01-06T20:03:56;962.9;;;3.3;96.3
51227;BME280;42714;48.260;10.980;2024-01-06T20:08:57;962.9;;;3.3;96.3
51227;BME280;42714;48.260;10.980;2024-01-06T20:13:58;962.9;;;3.3;96.2
51227;BME280;42714;48.260;10.980;2024-01-06T20:18:59;962.9;;;3.3;96.0
51227;BME280;42714;48.260;10.980;2024-01-06T20:24:00;962.9;;;3.3;96.2
51227;BME280;42714;48.260;10.980;2024-01-06T20:29:01;963.0;;;3.3;96.3
51227;BME280;42714;48.260;10.980;2024-01-06T20:34:02;962.9;;;3.4;95.9
51227;BME280;42714;48.260;10.980;2024-01-06T20:39:03;962.9;;;3.3;96.0
51227;BME280;42714;48.260;10.980;2024-01-06T20:44:04;962.8;;;3.2;95.8
51227;BME280;42714;48.260;10.980;2024-01-06T20:49:05;962.8;;;3.3;95.9
51227;BME280;42714;48.260;10.980;2024-01-06T20:54:06;962.7;;;3.3;95.8
51227;BME280;42714;48.260;10.980;2024-01-06T20:59:07;962.7;;;3.2;95.5
51227;BME280;42714;48.260;10.980;2024-01-06T21:04:08;962.7;;;3.2;95.3
51227;BME280;42714;48.260;10.980;2024-01-06T21:09:09;962.7;;;3.2;95.5
51227;BME280;42714;48.260;10.980;2024-01-06T21:14:10;962.7;;;3.2;95.3
51227;BME280;42714;48.260;10.980;2024-01-06T21:19:11;962.7;;;3.1;95.3
51227;BME280;42714;48.260;10.980;2024-01-06T21:24:12;962.7;;;2.9;95.3
51227;BME280;42714;48.260;10.980;2024-01-06T21:29:13;962.7;;;2.7;95.7
51227;BME280;42714;48.260;10.980;2024-01-06T21:34:14;962.7;;;2.6;96.0
51227;BME280;42714;48.260;10.980;2024-01-06T21:39:15;962.7;;;2.5;96.3
51227;BME280;42714;48.260;10.980;2024-01-06T21:44:16;962.7;;;2.3;96.7
51227;BME280;42714;48.260;10.980;2024-01-06T21:49:17;962.7;;;2.3;97.1
51227;BME280;42714;48.260;10.980;2024-01-06T21:54:18;962.7;;;2.3;97.6
51227;BME280;42714;48.260;10.980;2024-01-06T21:59:19;962.7;;;2.3;97.8
51227;BME280;42714;48.260;10.980;2024-01-06T22:04:20;962.7;;;2.3;97.9
51227;BME280;42714;48.260;10.980;2024-01-06T22:09:21;962.8;;;2.2;98.0
51227;BME280;42714;48.260;10.980;2024-01-06T22:14:22;962.8;;;2.2;98.3
51227;BME280;42714;48.260;10.980;2024-01-06T22:19:23;962.8;;;2.2;98.6
51227;BME280;42714;48.260;10.980;2024-01-06T22:24:24;962.8;;;2.2;98.8
51227;BME280;42714;48.260;10.980;2024-01-06T22:29:25;962.8;;;2.2;98.9
51227;BME280;42714;48.260;10.980;2024-01-06T22:34:26;962.8;;;2.3;99.0
51227;BME280;42714;48.260;10.980;2024-01-06T22:39:27;962.8;;;2.3;99.2
51227;BME280;42714;48.260;10.980;2024-01-06T22:44:28;962.8;;;2.4;99.2
51227;BME280;42714;48.260;10.980;2024-01-06T22:49:29;962.8;;;2.3;99.1
51227;BME280;42714;48.260;10.980;2024-01-06T22:54:30;962.8;;;2.3;99.3
51227;BME280;42714;48.260;10.980;2024-01-06T22:59:31;962.8;;;2.4;99.4
51227;BME280;42714;48.260;10.980;2024-01-06T23:04:32;962.8;;;2.5;99.4
51227;BME280;42714;48.260;10.980;2024-01-06T23:09:33;962.8;;;2.6;99.3
51227;BME280;42714;48.260;10.980;2024-01-06T23:14:34;962.8;;;2.6;99.1
51227;BME280;42714;48.260;10.980;2024-01-06T23:19:35;962.9;;;2.7;99.0
51227;BME280;42714;48.260;10.980;2024-01-06T23:24:36;962.9;;;2.7;99.0
51227;BME280;42714;48.260;10.980;2024-01-06T23:29:37;962.9;;;2.7;99.0
51227;BME280;42714;48.260;10.980;2024-01-06T23:34:38;962.9;;;2.8;98.9
51227;BME280;42714;48.260;10.980;2024-01-06T23:39:39;962.9;;;2.9;99.0
51227;BME280;42714;48.260;10.980;2024-01-06T23:44:40;962.9;;;3.0;98.9
51227;BME280;42714;48.260;10.980;2024-01-06T23:49:41;962.8;;;3.0;98.9
51227;BME280;42714;48.260;10.980;2024-01-06T23:54:42;962.8;;;3.2;98.8
51227;BME280;42714;48.260;10.980;2024-01-06T23:59:43;962.8;;;3.1;98.9
